sensor_id;sensor_type;location;lat;lon;timestamp;P1;durP1;ratioP1;P2;durP2;ratioP2
13793;SDS011;31160;49.500;7.772;2022-11-11T00:00:58;24.20;;;10.47;;
13793;SDS011;31160;49.500;7.772;2022-11-11T00:03:44;17.90;;;12.23;;
13793;SDS011;31160;49.500;7.772;2022-11-11T00:06:30;19.27;;;11.77;;
13793;SDS011;31160;49.500;7.772;2022-11-11T00:09:15;19.87;;;11.80;;
13793;SDS011;31160;49.500;7.772;2022-11-11T00:12:01;18.60;;;11.53;;
13793;SDS011;31160;49.500;7.772;2022-11-11T00:14:46;19.37;;;11.60;;
13793;SDS011;31160;49.500;7.772;2022-11-11T00:17:32;21.70;;;12.33;;
13793;SDS011;31160;49.500;7.772;2022-11-11T00:20:37;31.73;;;12.37;;
13793;SDS011;31160;49.500;7.772;2022-11-11T00:23:41;21.13;;;11.67;;
13793;SDS011;31160;49.500;7.772;2022-11-11T00:26:45;23.77;;;12.40;;
13793;SDS011;31160;49.500;7.772;2022-11-11T00:29:30;20.97;;;12.70;;
13793;SDS011;31160;49.500;7.772;2022-11-11T00:32:16;27.87;;;11.43;;
13793;SDS011;31160;49.500;7.772;2022-11-11T00:35:07;21.23;;;10.87;;
13793;SDS011;31160;49.500;7.772;2022-11-11T00:38:13;18.33;;;10.80;;
13793;SDS011;31160;49.500;7.772;2022-11-11T00:41:18;18.57;;;10.70;;
13793;SDS011;31160;49.500;7.772;2022-11-11T00:44:04;17.17;;;10.20;;
13793;SDS011;31160;49.500;7.772;2022-11-11T00:46:49;17.03;;;9.87;;
13793;SDS011;31160;49.500;7.772;2022-11-11T00:49:53;16.50;;;9.77;;
13793;SDS011;31160;49.500;7.772;2022-11-11T00:52:57;19.10;;;10.43;;
13793;SDS011;31160;49.500;7.772;2022-11-11T00:55:43;20.93;;;11.27;;
13793;SDS011;31160;49.500;7.772;2022-11-11T00:58:28;25.43;;;9.60;;
13793;SDS011;31160;49.500;7.772;2022-11-11T01:01:14;26.17;;;10.00;;
13793;SDS011;31160;49.500;7.772;2022-11-11T01:04:00;16.80;;;10.73;;
13793;SDS011;31160;49.500;7.772;2022-11-11T01:06:46;29.40;;;10.57;;
13793;SDS011;31160;49.500;7.772;2022-11-11T01:09:31;20.73;;;10.13;;
13793;SDS011;31160;49.500;7.772;2022-11-11T01:12:17;19.37;;;10.93;;
13793;SDS011;31160;49.500;7.772;2022-11-11T01:15:02;43.83;;;9.67;;
13793;SDS011;31160;49.500;7.772;2022-11-11T01:17:48;14.97;;;9.07;;
13793;SDS011;31160;49.500;7.772;2022-11-11T01:20:34;25.30;;;8.43;;
13793;SDS011;31160;49.500;7.772;2022-11-11T01:23:21;25.67;;;9.20;;
13793;SDS011;31160;49.500;7.772;2022-11-11T01:29:12;34.87;;;8.73;;
13793;SDS011;31160;49.500;7.772;2022-11-11T01:31:58;36.70;;;9.60;;
13793;SDS011;31160;49.500;7.772;2022-11-11T01:34:43;66.57;;;9.47;;
13793;SDS011;31160;49.500;7.772;2022-11-11T01:37:31;47.43;;;8.90;;
13793;SDS011;31160;49.500;7.772;2022-11-11T01:40:17;38.83;;;9.43;;
13793;SDS011;31160;49.500;7.772;2022-11-11T01:45:49;22.23;;;8.53;;
13793;SDS011;31160;49.500;7.772;2022-11-11T01:48:45;15.37;;;8.40;;
13793;SDS011;31160;49.500;7.772;2022-11-11T01:54:49;14.43;;;7.40;;
13793;SDS011;31160;49.500;7.772;2022-11-11T01:57:50;10.80;;;5.93;;
13793;SDS011;31160;49.500;7.772;2022-11-11T02:00:41;9.80;;;6.30;;
13793;SDS011;31160;49.500;7.772;2022-11-11T02:03:26;22.20;;;6.93;;
13793;SDS011;31160;49.500;7.772;2022-11-11T02:06:15;8.83;;;5.27;;
13793;SDS011;31160;49.500;7.772;2022-11-11T02:09:02;17.60;;;5.53;;
13793;SDS011;31160;49.500;7.772;2022-11-11T02:11:48;13.70;;;5.40;;
13793;SDS011;31160;49.500;7.772;2022-11-11T02:14:54;14.43;;;5.40;;
13793;SDS011;31160;49.500;7.772;2022-11-11T02:17:42;19.07;;;5.93;;
13793;SDS011;31160;49.500;7.772;2022-11-11T02:20:28;16.97;;;5.77;;
13793;SDS011;31160;49.500;7.772;2022-11-11T02:23:27;22.97;;;5.60;;
13793;SDS011;31160;49.500;7.772;2022-11-11T02:26:19;23.40;;;4.73;;
13793;SDS011;31160;49.500;7.772;2022-11-11T02:29:16;8.53;;;5.20;;
13793;SDS011;31160;49.500;7.772;2022-11-11T02:32:04;22.73;;;6.40;;
13793;SDS011;31160;49.500;7.772;2022-11-11T02:34:49;17.77;;;6.73;;
13793;SDS011;31160;49.500;7.772;2022-11-11T02:37:35;18.87;;;6.73;;
13793;SDS011;31160;49.500;7.772;2022-11-11T02:40:23;10.27;;;6.30;;
13793;SDS011;31160;49.500;7.772;2022-11-11T02:43:14;13.73;;;5.73;;
13793;SDS011;31160;49.500;7.772;2022-11-11T02:46:00;12.17;;;5.30;;
13793;SDS011;31160;49.500;7.772;2022-11-11T02:48:46;10.67;;;6.07;;
13793;SDS011;31160;49.500;7.772;2022-11-11T02:51:32;10.87;;;5.57;;
13793;SDS011;31160;49.500;7.772;2022-11-11T02:54:17;13.30;;;5.63;;
13793;SDS011;31160;49.500;7.772;2022-11-11T02:57:03;10.23;;;5.83;;
13793;SDS011;31160;49.500;7.772;2022-11-11T02:59:51;9.90;;;5.90;;
13793;SDS011;31160;49.500;7.772;2022-11-11T03:02:37;8.70;;;4.90;;
13793;SDS011;31160;49.500;7.772;2022-11-11T03:05:23;5.93;;;3.97;;
13793;SDS011;31160;49.500;7.772;2022-11-11T03:08:09;21.33;;;4.43;;
13793;SDS011;31160;49.500;7.772;2022-11-11T03:10:55;10.93;;;4.17;;
13793;SDS011;31160;49.500;7.772;2022-11-11T03:13:40;12.10;;;4.43;;
13793;SDS011;31160;49.500;7.772;2022-11-11T03:16:25;8.97;;;4.10;;
13793;SDS011;31160;49.500;7.772;2022-11-11T03:19:30;9.73;;;3.97;;
13793;SDS011;31160;49.500;7.772;2022-11-11T03:22:15;9.53;;;3.93;;
13793;SDS011;31160;49.500;7.772;2022-11-11T03:25:20;6.90;;;4.17;;
13793;SDS011;31160;49.500;7.772;2022-11-11T03:28:23;24.63;;;4.27;;
13793;SDS011;31160;49.500;7.772;2022-11-11T03:31:09;8.53;;;4.63;;
13793;SDS011;31160;49.500;7.772;2022-11-11T03:33:55;20.70;;;5.27;;
13793;SDS011;31160;49.500;7.772;2022-11-11T03:37:00;9.50;;;3.97;;
13793;SDS011;31160;49.500;7.772;2022-11-11T03:40:04;18.97;;;3.87;;
13793;SDS011;31160;49.500;7.772;2022-11-11T03:42:50;24.30;;;4.60;;
13793;SDS011;31160;49.500;7.772;2022-11-11T03:45:36;11.37;;;4.10;;
13793;SDS011;31160;49.500;7.772;2022-11-11T03:48:22;7.40;;;4.10;;
13793;SDS011;31160;49.500;7.772;2022-11-11T03:51:08;6.13;;;3.10;;
13793;SDS011;31160;49.500;7.772;2022-11-11T03:53:53;4.83;;;3.80;;
13793;SDS011;31160;49.500;7.772;2022-11-11T03:56:38;9.83;;;3.87;;
13793;SDS011;31160;49.500;7.772;2022-11-11T03:59:24;8.23;;;3.97;;
13793;SDS011;31160;49.500;7.772;2022-11-11T04:02:13;6.20;;;3.80;;
13793;SDS011;31160;49.500;7.772;2022-11-11T04:05:17;14.67;;;3.90;;
13793;SDS011;31160;49.500;7.772;2022-11-11T04:08:21;9.17;;;5.10;;
13793;SDS011;31160;49.500;7.772;2022-11-11T04:14:27;11.83;;;4.30;;
13793;SDS011;31160;49.500;7.772;2022-11-11T04:17:31;13.77;;;4.47;;
13793;SDS011;31160;49.500;7.772;2022-11-11T04:20:16;5.00;;;3.30;;
13793;SDS011;31160;49.500;7.772;2022-11-11T04:23:20;6.30;;;3.53;;
13793;SDS011;31160;49.500;7.772;2022-11-11T04:26:06;5.07;;;3.27;;
13793;SDS011;31160;49.500;7.772;2022-11-11T04:28:51;11.80;;;2.83;;
13793;SDS011;31160;49.500;7.772;2022-11-11T04:31:56;20.53;;;2.60;;
13793;SDS011;31160;49.500;7.772;2022-11-11T04:35:04;11.53;;;3.07;;
13793;SDS011;31160;49.500;7.772;2022-11-11T04:37:57;6.30;;;2.90;;
13793;SDS011;31160;49.500;7.772;2022-11-11T04:41:02;6.97;;;3.30;;
13793;SDS011;31160;49.500;7.772;2022-11-11T04:43:47;6.33;;;3.00;;
13793;SDS011;31160;49.500;7.772;2022-11-11T04:46:51;41.00;;;3.80;;
13793;SDS011;31160;49.500;7.772;2022-11-11T04:49:36;5.37;;;2.63;;
13793;SDS011;31160;49.500;7.772;2022-11-11T04:52:22;8.70;;;2.60;;
13793;SDS011;31160;49.500;7.772;2022-11-11T04:55:10;3.50;;;2.87;;
13793;SDS011;31160;49.500;7.772;2022-11-11T04:58:15;8.07;;;2.43;;
13793;SDS011;31160;49.500;7.772;2022-11-11T05:01:04;3.53;;;2.60;;
13793;SDS011;31160;49.500;7.772;2022-11-11T05:03:50;5.60;;;2.73;;
13793;SDS011;31160;49.500;7.772;2022-11-11T05:06:35;14.17;;;2.70;;
13793;SDS011;31160;49.500;7.772;2022-11-11T05:09:43;14.33;;;2.20;;
13793;SDS011;31160;49.500;7.772;2022-11-11T05:12:28;4.00;;;2.67;;
13793;SDS011;31160;49.500;7.772;2022-11-11T05:15:14;5.73;;;2.60;;
13793;SDS011;31160;49.500;7.772;2022-11-11T05:18:18;4.40;;;3.03;;
13793;SDS011;31160;49.500;7.772;2022-11-11T05:21:23;8.63;;;2.10;;
13793;SDS011;31160;49.500;7.772;2022-11-11T05:24:12;9.10;;;2.23;;
13793;SDS011;31160;49.500;7.772;2022-11-11T05:27:16;2.83;;;2.20;;
13793;SDS011;31160;49.500;7.772;2022-11-11T05:30:02;5.37;;;2.20;;
13793;SDS011;31160;49.500;7.772;2022-11-11T05:32:48;4.53;;;2.30;;
13793;SDS011;31160;49.500;7.772;2022-11-11T05:35:34;18.80;;;2.43;;
13793;SDS011;31160;49.500;7.772;2022-11-11T05:38:20;7.83;;;2.50;;
13793;SDS011;31160;49.500;7.772;2022-11-11T05:41:06;15.17;;;2.37;;
13793;SDS011;31160;49.500;7.772;2022-11-11T05:43:52;5.87;;;2.30;;
13793;SDS011;31160;49.500;7.772;2022-11-11T05:46:37;10.83;;;2.37;;
13793;SDS011;31160;49.500;7.772;2022-11-11T05:49:23;2.07;;;1.80;;
13793;SDS011;31160;49.500;7.772;2022-11-11T05:52:12;2.60;;;2.23;;
13793;SDS011;31160;49.500;7.772;2022-11-11T05:55:00;5.97;;;2.03;;
13793;SDS011;31160;49.500;7.772;2022-11-11T05:57:45;1.93;;;1.73;;
13793;SDS011;31160;49.500;7.772;2022-11-11T06:00:31;2.30;;;2.00;;
13793;SDS011;31160;49.500;7.772;2022-11-11T06:03:16;5.97;;;2.53;;
13793;SDS011;31160;49.500;7.772;2022-11-11T06:06:02;22.87;;;2.57;;
13793;SDS011;31160;49.500;7.772;2022-11-11T06:08:47;3.27;;;2.10;;
13793;SDS011;31160;49.500;7.772;2022-11-11T06:11:32;2.23;;;2.03;;
13793;SDS011;31160;49.500;7.772;2022-11-11T06:14:18;2.87;;;2.03;;
13793;SDS011;31160;49.500;7.772;2022-11-11T06:17:03;3.00;;;2.40;;
13793;SDS011;31160;49.500;7.772;2022-11-11T06:19:48;2.57;;;2.07;;
13793;SDS011;31160;49.500;7.772;2022-11-11T06:22:34;2.13;;;1.80;;
13793;SDS011;31160;49.500;7.772;2022-11-11T06:25:48;2.57;;;1.90;;
13793;SDS011;31160;49.500;7.772;2022-11-11T06:28:53;5.83;;;1.87;;
13793;SDS011;31160;49.500;7.772;2022-11-11T06:31:41;2.10;;;1.80;;
13793;SDS011;31160;49.500;7.772;2022-11-11T06:34:27;2.90;;;2.10;;
13793;SDS011;31160;49.500;7.772;2022-11-11T06:37:12;5.00;;;1.97;;
13793;SDS011;31160;49.500;7.772;2022-11-11T06:39:58;9.67;;;2.00;;
13793;SDS011;31160;49.500;7.772;2022-11-11T06:42:43;2.27;;;1.97;;
13793;SDS011;31160;49.500;7.772;2022-11-11T06:45:29;3.47;;;2.10;;
13793;SDS011;31160;49.500;7.772;2022-11-11T06:48:15;9.27;;;2.33;;
13793;SDS011;31160;49.500;7.772;2022-11-11T06:51:01;4.80;;;2.33;;
13793;SDS011;31160;49.500;7.772;2022-11-11T06:53:50;3.67;;;2.00;;
13793;SDS011;31160;49.500;7.772;2022-11-11T06:56:35;3.83;;;2.13;;
13793;SDS011;31160;49.500;7.772;2022-11-11T06:59:21;1.73;;;1.50;;
13793;SDS011;31160;49.500;7.772;2022-11-11T07:02:13;4.00;;;1.90;;
13793;SDS011;31160;49.500;7.772;2022-11-11T07:04:59;2.40;;;1.63;;
13793;SDS011;31160;49.500;7.772;2022-11-11T07:07:44;5.60;;;1.17;;
13793;SDS011;31160;49.500;7.772;2022-11-11T07:10:30;2.37;;;1.50;;
13793;SDS011;31160;49.500;7.772;2022-11-11T07:13:16;2.53;;;1.70;;
13793;SDS011;31160;49.500;7.772;2022-11-11T07:16:01;1.90;;;1.67;;
13793;SDS011;31160;49.500;7.772;2022-11-11T07:18:47;2.70;;;1.80;;
13793;SDS011;31160;49.500;7.772;2022-11-11T07:21:32;1.90;;;1.43;;
13793;SDS011;31160;49.500;7.772;2022-11-11T07:24:18;2.97;;;2.00;;
13793;SDS011;31160;49.500;7.772;2022-11-11T07:27:03;2.60;;;2.00;;
13793;SDS011;31160;49.500;7.772;2022-11-11T07:29:48;9.50;;;1.70;;
13793;SDS011;31160;49.500;7.772;2022-11-11T07:32:34;6.27;;;2.23;;
13793;SDS011;31160;49.500;7.772;2022-11-11T07:35:20;4.60;;;1.87;;
13793;SDS011;31160;49.500;7.772;2022-11-11T07:38:06;2.90;;;2.00;;
13793;SDS011;31160;49.500;7.772;2022-11-11T07:40:51;2.67;;;1.93;;
13793;SDS011;31160;49.500;7.772;2022-11-11T07:43:36;7.20;;;1.73;;
13793;SDS011;31160;49.500;7.772;2022-11-11T07:46:22;4.80;;;2.27;;
13793;SDS011;31160;49.500;7.772;2022-11-11T07:49:07;27.37;;;2.20;;
13793;SDS011;31160;49.500;7.772;2022-11-11T07:51:53;2.77;;;1.93;;
13793;SDS011;31160;49.500;7.772;2022-11-11T07:54:38;4.77;;;2.13;;
13793;SDS011;31160;49.500;7.772;2022-11-11T07:57:23;1.80;;;1.37;;
13793;SDS011;31160;49.500;7.772;2022-11-11T08:00:10;1.60;;;1.50;;
13793;SDS011;31160;49.500;7.772;2022-11-11T08:02:56;1.70;;;1.50;;
13793;SDS011;31160;49.500;7.772;2022-11-11T08:05:43;1.80;;;1.50;;
13793;SDS011;31160;49.500;7.772;2022-11-11T08:08:29;1.70;;;1.20;;
13793;SDS011;31160;49.500;7.772;2022-11-11T08:11:15;9.83;;;1.57;;
13793;SDS011;31160;49.500;7.772;2022-11-11T08:14:01;4.23;;;1.97;;
13793;SDS011;31160;49.500;7.772;2022-11-11T08:16:46;23.80;;;2.00;;
13793;SDS011;31160;49.500;7.772;2022-11-11T08:19:31;6.63;;;1.90;;
13793;SDS011;31160;49.500;7.772;2022-11-11T08:22:17;3.33;;;2.20;;
13793;SDS011;31160;49.500;7.772;2022-11-11T08:25:02;2.00;;;1.70;;
13793;SDS011;31160;49.500;7.772;2022-11-11T08:27:56;1.90;;;1.67;;
13793;SDS011;31160;49.500;7.772;2022-11-11T08:30:43;5.97;;;1.87;;
13793;SDS011;31160;49.500;7.772;2022-11-11T08:33:28;3.93;;;2.23;;
13793;SDS011;31160;49.500;7.772;2022-11-11T08:36:19;5.90;;;2.40;;
13793;SDS011;31160;49.500;7.772;2022-11-11T08:39:05;6.83;;;2.33;;
13793;SDS011;31160;49.500;7.772;2022-11-11T08:41:51;3.63;;;2.70;;
13793;SDS011;31160;49.500;7.772;2022-11-11T08:44:36;2.43;;;1.87;;
13793;SDS011;31160;49.500;7.772;2022-11-11T08:47:22;13.50;;;2.40;;
13793;SDS011;31160;49.500;7.772;2022-11-11T08:50:08;13.00;;;2.33;;
13793;SDS011;31160;49.500;7.772;2022-11-11T08:52:53;17.70;;;9.90;;
13793;SDS011;31160;49.500;7.772;2022-11-11T08:55:39;11.50;;;3.80;;
13793;SDS011;31160;49.500;7.772;2022-11-11T08:58:24;25.90;;;8.13;;
13793;SDS011;31160;49.500;7.772;2022-11-11T09:01:11;18.03;;;4.73;;
13793;SDS011;31160;49.500;7.772;2022-11-11T09:03:57;6.23;;;2.23;;
13793;SDS011;31160;49.500;7.772;2022-11-11T09:07:03;7.70;;;2.80;;
13793;SDS011;31160;49.500;7.772;2022-11-11T09:09:49;4.00;;;3.20;;
13793;SDS011;31160;49.500;7.772;2022-11-11T09:12:34;6.57;;;3.70;;
13793;SDS011;31160;49.500;7.772;2022-11-11T09:15:20;11.17;;;4.60;;
13793;SDS011;31160;49.500;7.772;2022-11-11T09:18:05;26.93;;;13.57;;
13793;SDS011;31160;49.500;7.772;2022-11-11T09:20:50;6.47;;;4.37;;
13793;SDS011;31160;49.500;7.772;2022-11-11T09:23:36;6.17;;;3.70;;
13793;SDS011;31160;49.500;7.772;2022-11-11T09:26:21;3.87;;;2.33;;
13793;SDS011;31160;49.500;7.772;2022-11-11T09:29:07;3.57;;;2.20;;
13793;SDS011;31160;49.500;7.772;2022-11-11T09:31:52;6.83;;;4.00;;
13793;SDS011;31160;49.500;7.772;2022-11-11T09:34:37;8.10;;;4.63;;
13793;SDS011;31160;49.500;7.772;2022-11-11T09:37:23;6.73;;;3.73;;
13793;SDS011;31160;49.500;7.772;2022-11-11T09:40:15;19.80;;;11.37;;
13793;SDS011;31160;49.500;7.772;2022-11-11T09:43:15;10.43;;;5.70;;
13793;SDS011;31160;49.500;7.772;2022-11-11T09:49:42;5.17;;;2.63;;
13793;SDS011;31160;49.500;7.772;2022-11-11T09:52:58;5.20;;;3.50;;
13793;SDS011;31160;49.500;7.772;2022-11-11T09:55:48;6.43;;;4.40;;
13793;SDS011;31160;49.500;7.772;2022-11-11T09:58:40;12.40;;;6.33;;
13793;SDS011;31160;49.500;7.772;2022-11-11T10:01:36;7.00;;;4.80;;
13793;SDS011;31160;49.500;7.772;2022-11-11T10:04:36;7.97;;;5.43;;
13793;SDS011;31160;49.500;7.772;2022-11-11T10:07:50;9.43;;;6.67;;
13793;SDS011;31160;49.500;7.772;2022-11-11T10:10:48;12.30;;;7.97;;
13793;SDS011;31160;49.500;7.772;2022-11-11T10:13:35;16.80;;;8.93;;
13793;SDS011;31160;49.500;7.772;2022-11-11T10:19:21;12.90;;;6.83;;
13793;SDS011;31160;49.500;7.772;2022-11-11T10:22:15;13.57;;;8.80;;
13793;SDS011;31160;49.500;7.772;2022-11-11T10:27:58;9.43;;;7.40;;
13793;SDS011;31160;49.500;7.772;2022-11-11T10:30:46;16.33;;;11.17;;
13793;SDS011;31160;49.500;7.772;2022-11-11T10:33:55;22.40;;;13.93;;
13793;SDS011;31160;49.500;7.772;2022-11-11T10:36:52;26.37;;;17.67;;
13793;SDS011;31160;49.500;7.772;2022-11-11T10:39:48;15.63;;;10.83;;
13793;SDS011;31160;49.500;7.772;2022-11-11T10:42:38;16.10;;;10.70;;
13793;SDS011;31160;49.500;7.772;2022-11-11T10:45:30;11.77;;;8.43;;
13793;SDS011;31160;49.500;7.772;2022-11-11T10:51:34;36.80;;;20.47;;
13793;SDS011;31160;49.500;7.772;2022-11-11T10:57:43;6.67;;;5.63;;
13793;SDS011;31160;49.500;7.772;2022-11-11T11:00:41;6.80;;;5.40;;
13793;SDS011;31160;49.500;7.772;2022-11-11T11:07:00;7.43;;;5.00;;
13793;SDS011;31160;49.500;7.772;2022-11-11T11:09:56;7.13;;;4.30;;
13793;SDS011;31160;49.500;7.772;2022-11-11T11:12:51;4.03;;;3.43;;
13793;SDS011;31160;49.500;7.772;2022-11-11T11:15:48;6.27;;;4.30;;
13793;SDS011;31160;49.500;7.772;2022-11-11T11:18:40;6.63;;;3.37;;
13793;SDS011;31160;49.500;7.772;2022-11-11T11:21:28;5.23;;;2.60;;
13793;SDS011;31160;49.500;7.772;2022-11-11T11:24:36;4.73;;;2.97;;
13793;SDS011;31160;49.500;7.772;2022-11-11T11:27:28;4.70;;;3.13;;
13793;SDS011;31160;49.500;7.772;2022-11-11T11:30:14;5.50;;;2.90;;
13793;SDS011;31160;49.500;7.772;2022-11-11T11:33:02;4.30;;;2.80;;
13793;SDS011;31160;49.500;7.772;2022-11-11T11:35:48;4.93;;;2.60;;
13793;SDS011;31160;49.500;7.772;2022-11-11T11:38:41;4.30;;;2.90;;
13793;SDS011;31160;49.500;7.772;2022-11-11T11:41:43;3.50;;;2.67;;
13793;SDS011;31160;49.500;7.772;2022-11-11T11:44:36;3.93;;;2.77;;
13793;SDS011;31160;49.500;7.772;2022-11-11T11:56:38;6.90;;;3.23;;
13793;SDS011;31160;49.500;7.772;2022-11-11T11:59:36;5.80;;;4.83;;
13793;SDS011;31160;49.500;7.772;2022-11-11T12:02:31;5.00;;;3.33;;
13793;SDS011;31160;49.500;7.772;2022-11-11T12:05:24;3.97;;;3.20;;
13793;SDS011;31160;49.500;7.772;2022-11-11T12:08:27;3.03;;;2.73;;
13793;SDS011;31160;49.500;7.772;2022-11-11T12:11:32;3.30;;;2.73;;
13793;SDS011;31160;49.500;7.772;2022-11-11T12:20:41;3.80;;;3.07;;
13793;SDS011;31160;49.500;7.772;2022-11-11T12:23:54;4.97;;;3.00;;
13793;SDS011;31160;49.500;7.772;2022-11-11T12:36:40;3.77;;;3.00;;
13793;SDS011;31160;49.500;7.772;2022-11-11T12:39:26;7.60;;;3.50;;
13793;SDS011;31160;49.500;7.772;2022-11-11T12:42:34;5.77;;;3.27;;
13793;SDS011;31160;49.500;7.772;2022-11-11T12:45:35;4.90;;;3.80;;
13793;SDS011;31160;49.500;7.772;2022-11-11T12:48:32;7.93;;;5.00;;
13793;SDS011;31160;49.500;7.772;2022-11-11T12:58:11;5.80;;;4.53;;
13793;SDS011;31160;49.500;7.772;2022-11-11T13:01:17;7.10;;;4.57;;
13793;SDS011;31160;49.500;7.772;2022-11-11T13:04:21;4.30;;;3.90;;
13793;SDS011;31160;49.500;7.772;2022-11-11T13:13:49;8.87;;;4.27;;
13793;SDS011;31160;49.500;7.772;2022-11-11T13:16:35;6.70;;;4.70;;
13793;SDS011;31160;49.500;7.772;2022-11-11T13:22:25;9.97;;;6.20;;
13793;SDS011;31160;49.500;7.772;2022-11-11T13:25:14;27.17;;;12.70;;
13793;SDS011;31160;49.500;7.772;2022-11-11T13:31:29;9.77;;;5.77;;
13793;SDS011;31160;49.500;7.772;2022-11-11T13:34:16;9.20;;;6.50;;
13793;SDS011;31160;49.500;7.772;2022-11-11T13:37:02;12.20;;;8.83;;
13793;SDS011;31160;49.500;7.772;2022-11-11T13:39:50;6.23;;;4.83;;
13793;SDS011;31160;49.500;7.772;2022-11-11T13:42:46;7.67;;;6.17;;
13793;SDS011;31160;49.500;7.772;2022-11-11T13:45:35;7.63;;;5.43;;
13793;SDS011;31160;49.500;7.772;2022-11-11T13:48:28;18.50;;;10.77;;
13793;SDS011;31160;49.500;7.772;2022-11-11T13:54:23;11.90;;;7.17;;
13793;SDS011;31160;49.500;7.772;2022-11-11T13:57:19;7.93;;;6.33;;
13793;SDS011;31160;49.500;7.772;2022-11-11T14:08:58;27.90;;;17.43;;
13793;SDS011;31160;49.500;7.772;2022-11-11T14:11:44;14.43;;;10.43;;
13793;SDS011;31160;49.500;7.772;2022-11-11T14:17:18;13.73;;;8.97;;
13793;SDS011;31160;49.500;7.772;2022-11-11T14:23:40;10.80;;;7.90;;
13793;SDS011;31160;49.500;7.772;2022-11-11T14:26:26;12.20;;;9.33;;
13793;SDS011;31160;49.500;7.772;2022-11-11T14:29:16;13.43;;;9.33;;
13793;SDS011;31160;49.500;7.772;2022-11-11T14:35:00;10.47;;;8.70;;
13793;SDS011;31160;49.500;7.772;2022-11-11T14:44:40;24.07;;;9.87;;
13793;SDS011;31160;49.500;7.772;2022-11-11T14:47:30;17.30;;;10.97;;
13793;SDS011;31160;49.500;7.772;2022-11-11T14:53:16;10.77;;;8.87;;
13793;SDS011;31160;49.500;7.772;2022-11-11T14:56:04;12.63;;;9.60;;
13793;SDS011;31160;49.500;7.772;2022-11-11T14:59:02;11.57;;;9.00;;
13793;SDS011;31160;49.500;7.772;2022-11-11T15:01:52;10.73;;;8.27;;
13793;SDS011;31160;49.500;7.772;2022-11-11T15:04:39;18.30;;;11.00;;
13793;SDS011;31160;49.500;7.772;2022-11-11T15:07:28;9.00;;;7.40;;
13793;SDS011;31160;49.500;7.772;2022-11-11T15:10:31;22.17;;;8.83;;
13793;SDS011;31160;49.500;7.772;2022-11-11T15:13:51;35.77;;;16.03;;
13793;SDS011;31160;49.500;7.772;2022-11-11T15:19:56;23.43;;;13.67;;
13793;SDS011;31160;49.500;7.772;2022-11-11T15:25:40;13.33;;;9.23;;
13793;SDS011;31160;49.500;7.772;2022-11-11T15:29:00;19.50;;;9.73;;
13793;SDS011;31160;49.500;7.772;2022-11-11T15:35:08;25.97;;;8.77;;
13793;SDS011;31160;49.500;7.772;2022-11-11T15:38:18;49.40;;;9.30;;
13793;SDS011;31160;49.500;7.772;2022-11-11T15:41:04;32.17;;;9.53;;
13793;SDS011;31160;49.500;7.772;2022-11-11T15:44:08;35.80;;;9.87;;
13793;SDS011;31160;49.500;7.772;2022-11-11T15:47:10;32.00;;;10.70;;
13793;SDS011;31160;49.500;7.772;2022-11-11T15:49:57;46.67;;;9.87;;
13793;SDS011;31160;49.500;7.772;2022-11-11T15:52:42;32.47;;;10.33;;
13793;SDS011;31160;49.500;7.772;2022-11-11T15:55:29;61.23;;;22.03;;
13793;SDS011;31160;49.500;7.772;2022-11-11T15:58:17;24.43;;;13.93;;
13793;SDS011;31160;49.500;7.772;2022-11-11T16:01:11;26.20;;;11.87;;
13793;SDS011;31160;49.500;7.772;2022-11-11T16:03:57;29.70;;;12.43;;
13793;SDS011;31160;49.500;7.772;2022-11-11T16:06:42;45.60;;;11.57;;
13793;SDS011;31160;49.500;7.772;2022-11-11T16:09:28;29.83;;;12.73;;
13793;SDS011;31160;49.500;7.772;2022-11-11T16:12:30;50.87;;;23.07;;
13793;SDS011;31160;49.500;7.772;2022-11-11T16:15:27;39.93;;;10.00;;
13793;SDS011;31160;49.500;7.772;2022-11-11T16:18:21;11.70;;;8.83;;
13793;SDS011;31160;49.500;7.772;2022-11-11T16:23:58;28.23;;;9.00;;
13793;SDS011;31160;49.500;7.772;2022-11-11T16:26:45;26.63;;;8.93;;
13793;SDS011;31160;49.500;7.772;2022-11-11T16:29:32;25.40;;;9.73;;
13793;SDS011;31160;49.500;7.772;2022-11-11T16:35:55;39.97;;;9.37;;
13793;SDS011;31160;49.500;7.772;2022-11-11T16:38:31;34.70;;;9.10;;
13793;SDS011;31160;49.500;7.772;2022-11-11T16:41:29;36.70;;;9.17;;
13793;SDS011;31160;49.500;7.772;2022-11-11T16:44:35;38.60;;;9.50;;
13793;SDS011;31160;49.500;7.772;2022-11-11T16:50:19;22.23;;;9.60;;
13793;SDS011;31160;49.500;7.772;2022-11-11T16:53:06;24.23;;;10.17;;
13793;SDS011;31160;49.500;7.772;2022-11-11T16:56:02;24.90;;;10.07;;
13793;SDS011;31160;49.500;7.772;2022-11-11T16:58:56;41.23;;;10.67;;
13793;SDS011;31160;49.500;7.772;2022-11-11T17:01:44;25.87;;;12.00;;
13793;SDS011;31160;49.500;7.772;2022-11-11T17:04:47;69.13;;;11.73;;
13793;SDS011;31160;49.500;7.772;2022-11-11T17:07:42;20.03;;;11.17;;
13793;SDS011;31160;49.500;7.772;2022-11-11T17:10:27;12.83;;;8.83;;
13793;SDS011;31160;49.500;7.772;2022-11-11T17:13:21;10.97;;;8.33;;
13793;SDS011;31160;49.500;7.772;2022-11-11T17:16:07;10.77;;;7.57;;
13793;SDS011;31160;49.500;7.772;2022-11-11T17:18:53;9.53;;;7.03;;
13793;SDS011;31160;49.500;7.772;2022-11-11T17:21:38;9.93;;;6.63;;
13793;SDS011;31160;49.500;7.772;2022-11-11T17:24:24;9.57;;;6.93;;
13793;SDS011;31160;49.500;7.772;2022-11-11T17:27:09;13.13;;;7.17;;
13793;SDS011;31160;49.500;7.772;2022-11-11T17:29:55;11.93;;;7.00;;
13793;SDS011;31160;49.500;7.772;2022-11-11T17:32:40;11.50;;;7.97;;
13793;SDS011;31160;49.500;7.772;2022-11-11T17:35:26;11.27;;;8.20;;
13793;SDS011;31160;49.500;7.772;2022-11-11T17:38:11;11.60;;;7.97;;
13793;SDS011;31160;49.500;7.772;2022-11-11T17:40:57;10.43;;;7.67;;
13793;SDS011;31160;49.500;7.772;2022-11-11T17:43:42;12.27;;;7.77;;
13793;SDS011;31160;49.500;7.772;2022-11-11T17:46:28;13.57;;;8.13;;
13793;SDS011;31160;49.500;7.772;2022-11-11T17:49:13;11.27;;;7.97;;
13793;SDS011;31160;49.500;7.772;2022-11-11T17:52:19;13.57;;;8.00;;
13793;SDS011;31160;49.500;7.772;2022-11-11T17:55:05;13.40;;;8.47;;
13793;SDS011;31160;49.500;7.772;2022-11-11T17:57:50;12.37;;;8.70;;
13793;SDS011;31160;49.500;7.772;2022-11-11T18:00:36;11.07;;;7.37;;
13793;SDS011;31160;49.500;7.772;2022-11-11T18:03:21;9.40;;;5.80;;
13793;SDS011;31160;49.500;7.772;2022-11-11T18:06:07;8.67;;;5.60;;
13793;SDS011;31160;49.500;7.772;2022-11-11T18:08:53;11.97;;;6.93;;
13793;SDS011;31160;49.500;7.772;2022-11-11T18:11:38;8.60;;;6.47;;
13793;SDS011;31160;49.500;7.772;2022-11-11T18:14:23;6.20;;;4.50;;
13793;SDS011;31160;49.500;7.772;2022-11-11T18:17:09;6.60;;;5.07;;
13793;SDS011;31160;49.500;7.772;2022-11-11T18:19:54;10.07;;;5.23;;
13793;SDS011;31160;49.500;7.772;2022-11-11T18:22:40;6.37;;;4.67;;
13793;SDS011;31160;49.500;7.772;2022-11-11T18:25:25;6.83;;;5.10;;
13793;SDS011;31160;49.500;7.772;2022-11-11T18:28:10;11.57;;;6.93;;
13793;SDS011;31160;49.500;7.772;2022-11-11T18:31:03;12.07;;;6.70;;
13793;SDS011;31160;49.500;7.772;2022-11-11T18:33:49;10.63;;;6.70;;
13793;SDS011;31160;49.500;7.772;2022-11-11T18:36:34;14.47;;;7.63;;
13793;SDS011;31160;49.500;7.772;2022-11-11T18:39:20;10.97;;;6.90;;
13793;SDS011;31160;49.500;7.772;2022-11-11T18:42:05;14.77;;;7.50;;
13793;SDS011;31160;49.500;7.772;2022-11-11T18:44:51;12.47;;;7.27;;
13793;SDS011;31160;49.500;7.772;2022-11-11T18:47:36;15.30;;;8.87;;
13793;SDS011;31160;49.500;7.772;2022-11-11T18:50:22;20.10;;;9.00;;
13793;SDS011;31160;49.500;7.772;2022-11-11T18:53:07;18.73;;;9.87;;
13793;SDS011;31160;49.500;7.772;2022-11-11T18:55:52;24.63;;;9.90;;
13793;SDS011;31160;49.500;7.772;2022-11-11T18:58:38;20.50;;;9.60;;
13793;SDS011;31160;49.500;7.772;2022-11-11T19:01:26;23.60;;;9.10;;